Time;durP1;ratioP1;P1;durP2;ratioP2;P2;SDS_P1;SDS_P2;PMS_P1;PMS_P2;Temp;Humidity;BMP_temperature;BMP_pressure;BME280_temperature;BME280_humidity;BME280_pressure;Samples;Min_cycle;Max_cycle;Signal;HPM_P1;HPM_P2
2020/12/05 00:02:15;;;;;;;34.58;17.57;;;;;;;4.56;83.32;99366.95;1755884;79;21142;-79
2020/12/05 00:04:41;;;;;;;35.08;19.60;;;;;;;4.55;83.22;99369.09;1731639;79;21125;-79
2020/12/05 00:07:07;;;;;;;35.77;19.07;;;;;;;4.55;83.28;99380.62;1773615;80;22591;-79
2020/12/05 00:09:33;;;;;;;34.13;18.27;;;;;;;4.53;83.23;99379.36;1753556;79;20931;-79
2020/12/05 00:12:09;;;;;;;36.38;19.23;;;;;;;4.52;83.24;99367.42;1768379;80;21090;-79
2020/12/05 00:14:35;;;;;;;33.67;18.75;;;;;;;4.50;83.27;99366.59;1755753;80;21494;-79
2020/12/05 00:17:01;;;;;;;34.58;20.35;;;;;;;4.51;83.31;99359.76;1758811;80;21090;-79
2020/12/05 00:19:27;;;;;;;34.65;18.87;;;;;;;4.53;83.33;99357.59;1758138;79;21638;-78
2020/12/05 00:21:54;;;;;;;33.13;18.60;;;;;;;4.54;83.31;99361.85;1755583;80;21110;-78
2020/12/05 00:24:20;;;;;;;;;;;;;;;4.54;83.30;99356.73;1740900;80;21122;-78
2020/12/05 00:26:50;;;;;;;32.38;17.20;;;;;;;4.55;83.31;99355.02;1760504;80;20136;-78
2020/12/05 00:29:17;;;;;;;30.45;17.85;;;;;;;4.56;83.29;99360.55;1776661;78;21090;-79
2020/12/05 00:31:43;;;;;;;36.40;18.62;;;;;;;4.55;83.31;99366.11;1755912;78;21208;-79
2020/12/05 00:34:10;;;;;;;30.65;19.17;;;;;;;4.56;83.29;99370.80;1758922;80;20984;-79
2020/12/05 00:36:36;;;;;;;29.42;17.48;;;;;;;4.55;83.29;99369.95;1752437;80;21161;-79
2020/12/05 00:39:03;;;;;;;33.00;18.77;;;;;;;4.57;83.31;99374.61;1755491;80;20959;-79
2020/12/05 00:41:29;;;;;;;37.70;19.02;;;;;;;4.56;83.27;99374.20;1750791;78;21209;-79
2020/12/05 00:43:56;;;;;;;31.00;18.13;;;;;;;4.57;83.31;99368.22;1769165;80;21351;-79
2020/12/05 00:46:22;;;;;;;;;;;;;;;4.60;83.33;99362.22;1757217;78;21497;-79
2020/12/05 00:48:48;;;;;;;33.50;18.90;;;;;;;4.63;83.35;99361.74;1758814;80;20204;-79
2020/12/05 00:51:14;;;;;;;34.78;18.52;;;;;;;4.63;83.29;99348.94;1758844;80;22316;-79
2020/12/05 00:53:40;;;;;;;34.30;17.87;;;;;;;4.64;83.26;99360.03;1756643;80;21123;-79
2020/12/05 00:56:06;;;;;;;27.03;17.23;;;;;;;4.61;83.22;99355.80;1760373;78;21633;-79
2020/12/05 00:58:34;;;;;;;38.37;19.17;;;;;;;4.60;83.24;99355.38;1753254;80;21201;-79
2020/12/05 01:01:03;;;;;;;26.93;17.25;;;;;;;4.59;83.25;99357.52;1751753;80;21600;-79
2020/12/05 01:03:29;;;;;;;32.60;19.17;;;;;;;4.58;83.24;99347.30;1756896;78;21096;-79
2020/12/05 01:05:55;;;;;;;35.40;18.40;;;;;;;4.57;83.24;99354.57;1765364;80;20949;-78
2020/12/05 01:08:21;;;;;;;31.47;19.90;;;;;;;4.56;83.26;99348.60;1754945;80;21404;-78
2020/12/05 01:10:47;;;;;;;29.15;17.40;;;;;;;4.55;83.25;99351.18;1758142;80;21004;-78
2020/12/05 01:13:13;;;;;;;32.60;18.80;;;;;;;4.53;83.25;99353.75;1760852;79;21015;-79
2020/12/05 01:15:39;;;;;;;30.53;17.90;;;;;;;4.54;83.30;99355.45;1767988;80;22036;-79
2020/12/05 01:18:05;;;;;;;33.40;18.13;;;;;;;4.57;83.18;99347.73;1755242;80;21122;-79
2020/12/05 01:20:31;;;;;;;33.80;17.07;;;;;;;4.57;83.18;99347.73;1762641;80;21426;-79
2020/12/05 01:22:57;;;;;;;29.03;17.87;;;;;;;4.58;83.29;99339.63;1762652;78;20999;-79
2020/12/05 01:25:23;;;;;;;27.17;16.23;;;;;;;4.58;83.28;99337.06;1771588;79;22012;-79
2020/12/05 01:27:49;;;;;;;30.50;16.43;;;;;;;4.59;83.35;99332.36;1763082;80;20968;-79
2020/12/05 01:30:15;;;;;;;27.63;16.33;;;;;;;4.62;83.36;99326.77;1759835;79;20924;-79
2020/12/05 01:32:41;;;;;;;28.50;17.13;;;;;;;4.66;83.32;99327.58;1749290;80;21638;-79
2020/12/05 01:35:07;;;;;;;33.97;16.13;;;;;;;4.69;83.31;99333.91;1729151;80;20931;-79
2020/12/05 01:37:33;;;;;;;27.80;16.37;;;;;;;4.70;83.28;99327.07;1762726;79;21281;-79
2020/12/05 01:39:59;;;;;;;26.35;16.37;;;;;;;4.71;83.27;99329.61;1762451;80;21102;-79
2020/12/05 01:42:25;;;;;;;28.87;16.10;;;;;;;4.72;83.26;99326.62;1762117;80;20915;-79
2020/12/05 01:44:51;;;;;;;30.45;15.70;;;;;;;4.74;83.33;99330.00;1773700;80;21141;-79
2020/12/05 01:47:19;;;;;;;24.93;15.20;;;;;;;4.77;83.32;99319.29;1734792;80;20935;-79
2020/12/05 01:49:46;;;;;;;26.82;15.58;;;;;;;4.81;83.33;99320.09;1728697;80;21110;-79
2020/12/05 01:52:14;;;;;;;26.30;15.68;;;;;;;4.84;83.33;99319.62;1763761;79;20983;-79
2020/12/05 01:54:40;;;;;;;25.80;15.98;;;;;;;4.88;83.36;99314.87;1759436;80;21122;-79
2020/12/05 01:57:06;;;;;;;28.73;16.52;;;;;;;4.90;83.29;99306.73;1725095;80;21428;-79
2020/12/05 01:59:32;;;;;;;27.02;15.30;;;;;;;4.93;83.34;99304.13;1757541;79;20964;-79
2020/12/05 02:02:02;;;;;;;23.03;13.87;;;;;;;5.01;83.35;99304.45;1735020;80;20940;-79
2020/12/05 02:04:45;;;;;;;25.90;14.38;;;;;;;5.06;83.32;99309.92;1761717;80;21535;-79
2020/12/05 02:07:25;;;;;;;24.90;14.10;;;;;;;5.11;83.28;99318.39;1760822;79;21102;-79
2020/12/05 02:09:53;;;;;;;22.25;14.53;;;;;;;5.14;83.24;99316.22;1760463;80;22412;-79
2020/12/05 02:12:50;;;;;;;22.58;15.28;;;;;;;5.16;83.22;99323.02;1764226;79;21118;-79
2020/12/05 02:15:23;;;;;;;26.15;15.05;;;;;;;5.17;83.19;99340.09;1660800;85;21662;-79
2020/12/05 02:18:05;;;;;;;21.57;13.78;;;;;;;5.18;83.17;99335.38;1740196;79;21125;-79
2020/12/05 02:20:37;;;;;;;25.27;14.78;;;;;;;5.20;83.17;99348.16;1752875;80;21016;-79
2020/12/05 02:23:20;;;;;;;23.02;13.88;;;;;;;5.19;83.13;99354.16;1755549;80;21237;-79
2020/12/05 02:25:50;;;;;;;22.60;14.58;;;;;;;5.18;83.14;99348.62;1755172;80;20983;-79
2020/12/05 02:28:21;;;;;;;24.80;15.18;;;;;;;5.17;83.13;99359.73;1717167;82;21114;-79
2020/12/05 02:30:48;;;;;;;26.33;14.95;;;;;;;5.14;83.11;99356.78;1760145;79;21114;-79
2020/12/05 02:33:14;;;;;;;24.77;14.47;;;;;;;5.15;83.15;99363.60;1753259;80;22079;-79
2020/12/05 02:35:41;;;;;;;21.45;14.23;;;;;;;5.16;83.14;99350.35;1768839;80;21212;-79
2020/12/05 02:38:27;;;;;;;23.80;15.10;;;;;;;5.16;83.18;99343.52;1755265;80;21110;-79
2020/12/05 02:40:53;;;;;;;23.02;14.33;;;;;;;5.11;83.12;99332.92;1761141;79;21110;-79
2020/12/05 02:43:19;;;;;;;26.42;14.10;;;;;;;5.17;83.17;99341.36;1751647;80;21130;-79
2020/12/05 02:45:45;;;;;;;26.80;14.43;;;;;;;5.18;83.18;99347.34;1759461;80;21098;-79
2020/12/05 02:48:11;;;;;;;29.35;15.75;;;;;;;5.19;83.16;99338.78;1757283;79;21248;-79
2020/12/05 02:50:38;;;;;;;24.52;15.20;;;;;;;5.19;83.15;99351.16;1758018;80;21118;-79
2020/12/05 02:53:04;;;;;;;26.15;15.28;;;;;;;5.19;83.13;99349.03;1726297;80;21125;-79
2020/12/05 02:55:30;;;;;;;23.15;14.87;;;;;;;5.18;83.12;99352.03;1756656;79;21485;-79
2020/12/05 02:57:56;;;;;;;25.85;15.38;;;;;;;5.16;83.11;99349.92;1755781;80;21106;-79
2020/12/05 03:00:23;;;;;;;22.73;14.50;;;;;;;5.19;83.13;99349.88;1756750;80;21440;-79
2020/12/05 03:02:50;;;;;;;26.68;15.60;;;;;;;5.17;83.10;99355.45;1757205;79;21133;-79
2020/12/05 03:05:17;;;;;;;24.15;14.98;;;;;;;5.17;83.12;99359.73;1750547;80;21130;-79
2020/12/05 03:07:43;;;;;;;;;;;;;;;5.17;83.12;99360.58;1774453;80;21083;-79
2020/12/05 03:10:09;;;;;;;25.10;14.90;;;;;;;5.16;83.10;99360.17;1764543;80;20174;-79
2020/12/05 03:12:36;;;;;;;23.27;14.60;;;;;;;5.14;83.12;99361.91;1763257;79;21139;-79
2020/12/05 03:15:03;;;;;;;23.62;14.53;;;;;;;5.14;83.12;99361.91;1754935;79;21608;-79
2020/12/05 03:17:29;;;;;;;21.52;14.03;;;;;;;5.14;83.11;99361.06;1763291;80;21661;-79
2020/12/05 03:19:55;;;;;;;24.25;15.25;;;;;;;5.13;83.10;99354.23;1721927;80;21220;-79
2020/12/05 03:22:21;;;;;;;24.77;13.70;;;;;;;5.12;83.12;99354.67;1749245;79;21647;-79
2020/12/05 03:24:47;;;;;;;26.37;14.20;;;;;;;5.12;83.13;99345.70;1760449;79;21243;-79
2020/12/05 03:27:13;;;;;;;25.90;14.07;;;;;;;5.12;83.13;99346.98;1765387;80;20940;-79
2020/12/05 03:29:40;;;;;;;27.83;14.77;;;;;;;5.12;83.10;99348.70;1759693;78;20967;-79
2020/12/05 03:32:14;;;;;;;20.90;14.03;;;;;;;5.10;83.10;99357.69;1763336;78;21200;-79
2020/12/05 03:34:34;;;;;;;21.30;14.15;;;;;;;5.10;83.13;99358.97;1766698;78;21217;-79
2020/12/05 03:37:00;;;;;;;21.33;14.17;;;;;;;5.10;83.10;99356.41;1765436;80;22521;-79
2020/12/05 03:39:26;;;;;;;26.23;15.77;;;;;;;5.10;83.10;99361.97;1764634;78;22209;-79
2020/12/05 03:41:52;;;;;;;25.90;15.43;;;;;;;5.07;83.12;99367.98;1758284;79;21397;-79
2020/12/05 03:44:18;;;;;;;25.00;14.97;;;;;;;4.94;83.09;99344.25;1740912;80;22345;-79
2020/12/05 03:46:44;;;;;;;30.47;15.17;;;;;;;5.08;83.12;99364.98;1758840;78;20951;-79
2020/12/05 03:49:10;;;;;;;24.47;14.67;;;;;;;5.09;83.17;99365.40;1775944;80;21924;-79
2020/12/05 03:51:36;;;;;;;21.50;14.77;;;;;;;5.09;83.13;99356.00;1764840;78;20907;-79
2020/12/05 03:54:02;;;;;;;23.93;15.00;;;;;;;5.10;83.16;99364.09;1763325;78;20967;-79
2020/12/05 03:56:28;;;;;;;24.00;14.90;;;;;;;5.11;83.15;99372.20;1762251;80;21504;-79
2020/12/05 03:58:54;;;;;;;23.87;15.88;;;;;;;5.13;83.15;99380.71;1757978;80;21089;-79
2020/12/05 04:01:22;;;;;;;24.33;15.20;;;;;;;5.13;83.13;99375.59;1767646;78;21145;-79
2020/12/05 04:03:48;;;;;;;25.05;14.83;;;;;;;5.14;83.12;99374.72;1754551;80;21809;-79
2020/12/05 04:06:14;;;;;;;26.57;15.20;;;;;;;5.15;83.13;99374.28;1739874;80;21102;-79
2020/12/05 04:08:41;;;;;;;23.45;14.87;;;;;;;5.16;83.13;99382.38;1739659;80;21145;-79
2020/12/05 04:11:07;;;;;;;24.20;14.93;;;;;;;5.20;83.21;99381.47;1763575;79;21094;-79
2020/12/05 04:13:35;;;;;;;25.37;15.10;;;;;;;5.21;83.13;99380.14;1765924;80;21516;-79
2020/12/05 04:16:01;;;;;;;25.12;15.43;;;;;;;5.22;83.13;99383.11;1773050;78;21125;-79
2020/12/05 04:18:27;;;;;;;24.92;15.60;;;;;;;5.24;83.14;99384.37;1763129;80;21128;-79
2020/12/05 04:20:53;;;;;;;27.05;14.90;;;;;;;5.24;83.11;99384.37;1757206;80;21118;-79
2020/12/05 04:23:19;;;;;;;24.70;14.13;;;;;;;5.25;83.11;99395.04;1757110;78;20949;-79
2020/12/05 04:25:45;;;;;;;32.05;14.47;;;;;;;5.25;83.10;99388.20;1780265;79;21147;-79
2020/12/05 04:28:11;;;;;;;24.90;14.00;;;;;;;5.26;83.11;99391.17;1765637;78;21157;-79
2020/12/05 04:30:37;;;;;;;24.87;14.67;;;;;;;5.27;83.10;99387.74;1741804;80;21083;-79
2020/12/05 04:33:03;;;;;;;23.53;15.10;;;;;;;5.27;83.09;99383.05;1758535;80;21597;-79
2020/12/05 04:35:29;;;;;;;27.00;15.38;;;;;;;5.27;83.09;99373.64;1732577;80;21117;-79
2020/12/05 04:37:55;;;;;;;26.90;15.50;;;;;;;5.28;83.11;99393.71;1757398;80;21522;-79
2020/12/05 04:40:22;;;;;;;23.95;14.60;;;;;;;5.29;83.09;99388.56;1757112;80;21106;-79
2020/12/05 04:42:49;;;;;;;22.17;14.25;;;;;;;5.30;83.11;99394.11;1772493;80;21165;-79
2020/12/05 04:45:16;;;;;;;23.55;14.38;;;;;;;5.30;83.11;99405.64;1764757;78;21101;-79
2020/12/05 04:47:44;;;;;;;26.12;14.98;;;;;;;5.33;83.10;99417.13;1757361;80;21105;-79
2020/12/05 04:50:12;;;;;;;24.98;14.25;;;;;;;5.32;83.10;99414.16;1731108;81;21985;-79
2020/12/05 04:52:47;;;;;;;20.85;13.58;;;;;;;5.33;83.11;99415.84;1767413;78;21134;-79
2020/12/05 04:55:14;;;;;;;26.90;14.93;;;;;;;5.35;83.08;99412.41;1761067;80;21480;-79
2020/12/05 04:57:51;;;;;;;22.87;14.58;;;;;;;5.35;83.06;99422.67;1753778;80;21209;-79
2020/12/05 05:00:18;;;;;;;22.87;13.40;;;;;;;5.33;83.05;99420.13;1762820;80;21205;-79
2020/12/05 05:02:45;;;;;;;27.02;16.00;;;;;;;5.32;83.05;99412.88;1763747;78;22014;-79
2020/12/05 05:05:14;;;;;;;23.60;14.47;;;;;;;5.31;83.07;99421.43;1766864;79;21234;-79
2020/12/05 05:07:54;;;;;;;25.00;14.63;;;;;;;5.31;83.05;99426.55;1759531;80;21192;-79
2020/12/05 05:10:26;;;;;;;21.93;14.28;;;;;;;5.32;83.11;99420.56;1768493;78;21185;-79
2020/12/05 05:12:56;;;;;;;25.60;14.23;;;;;;;5.31;83.10;99419.30;1764522;80;21930;-79
2020/12/05 05:15:29;;;;;;;24.57;15.18;;;;;;;5.33;83.11;99423.97;1753223;78;22304;-79
2020/12/05 05:18:03;;;;;;;25.65;14.38;;;;;;;5.35;83.11;99427.80;1759107;80;21196;-79
2020/12/05 05:20:37;;;;;;;26.12;15.18;;;;;;;5.36;83.08;99429.48;1755416;80;21430;-79
2020/12/05 05:23:18;;;;;;;24.20;14.58;;;;;;;5.35;83.08;99431.64;1756781;78;21121;-79
2020/12/05 05:26:00;;;;;;;26.60;15.13;;;;;;;5.35;83.09;99429.08;1770284;79;21117;-79
2020/12/05 05:28:33;;;;;;;26.68;15.38;;;;;;;5.36;83.11;99432.05;1761124;80;21847;-79
2020/12/05 05:33:41;;;;;;;28.38;16.67;;;;;;;5.34;83.09;99425.67;1640041;80;5381367;-79
2020/12/05 05:36:23;;;;;;;23.05;15.00;;;;;;;5.33;83.09;99428.66;1736581;81;21145;-79
2020/12/05 05:39:06;;;;;;;25.88;15.53;;;;;;;5.31;83.05;99423.14;1726676;82;22370;-79
2020/12/05 05:41:36;;;;;;;24.10;15.60;;;;;;;5.30;83.07;99432.98;1716776;81;21204;-79
2020/12/05 05:44:12;;;;;;;26.73;16.50;;;;;;;5.31;83.16;99425.27;1718709;82;21138;-79
2020/12/05 05:46:42;;;;;;;28.02;16.32;;;;;;;5.33;83.13;99429.09;1725923;81;21130;-79
2020/12/05 05:49:11;;;;;;;25.17;15.68;;;;;;;5.35;83.12;99425.23;1732951;81;21134;-79
2020/12/05 05:51:49;;;;;;;26.50;16.07;;;;;;;5.36;83.13;99432.05;1731252;82;21169;-79
2020/12/05 05:54:25;;;;;;;27.42;16.25;;;;;;;5.36;83.12;99426.49;1705019;83;21130;-79
2020/12/05 05:57:10;;;;;;;27.58;16.02;;;;;;;5.36;83.14;99418.80;1700538;81;25289;-79
2020/12/05 05:59:43;;;;;;;24.43;16.07;;;;;;;5.37;83.12;99417.09;1690220;84;21688;-79
2020/12/05 06:02:14;;;;;;;24.70;15.45;;;;;;;5.38;83.12;99409.38;1710197;82;21109;-79
2020/12/05 06:04:43;;;;;;;26.30;15.20;;;;;;;5.38;83.13;99408.09;1678271;84;21338;-79
2020/12/05 06:07:14;;;;;;;27.40;15.85;;;;;;;5.40;83.17;99424.30;1674030;83;21605;-79
2020/12/05 06:09:52;;;;;;;21.10;14.13;;;;;;;5.43;83.20;99408.03;1681802;83;21135;-78
2020/12/05 06:12:26;;;;;;;24.30;15.15;;;;;;;5.47;83.19;99410.53;1673435;83;21146;-78
2020/12/05 06:14:53;;;;;;;24.05;15.68;;;;;;;5.51;83.20;99413.46;1678188;83;21120;-78
2020/12/05 06:17:21;;;;;;;24.23;16.12;;;;;;;5.53;83.15;99409.16;1670281;84;22004;-78
2020/12/05 06:19:50;;;;;;;29.20;16.70;;;;;;;5.58;83.15;99414.22;1677443;83;21167;-78
2020/12/05 06:22:27;;;;;;;24.92;15.45;;;;;;;5.59;83.11;99413.34;1698515;83;21405;-78
2020/12/05 06:25:08;;;;;;;24.45;15.35;;;;;;;5.61;83.13;99416.73;1675980;83;22034;-78
2020/12/05 06:27:36;;;;;;;21.52;14.30;;;;;;;5.66;83.12;99416.23;1652001;83;21128;-78
2020/12/05 06:30:08;;;;;;;26.20;16.00;;;;;;;5.68;83.11;99424.75;1699117;82;22548;-79
2020/12/05 06:32:46;;;;;;;25.35;15.20;;;;;;;5.70;83.10;99423.44;1673154;83;21163;-79
2020/12/05 06:35:27;;;;;;;28.27;16.55;;;;;;;5.74;83.13;99415.64;1698905;82;21870;-78
2020/12/05 06:37:55;;;;;;;26.17;15.60;;;;;;;5.78;83.10;99421.14;1700055;84;21107;-78
2020/12/05 06:40:23;;;;;;;24.52;15.05;;;;;;;5.79;83.06;99420.70;1696988;83;21125;-78
2020/12/05 06:42:53;;;;;;;22.25;14.15;;;;;;;5.81;83.11;99422.37;1700116;84;21138;-79
2020/12/05 06:45:33;;;;;;;27.85;15.28;;;;;;;5.85;83.09;99428.30;1696321;82;21131;-78
2020/12/05 06:48:14;;;;;;;24.70;14.70;;;;;;;5.88;83.09;99433.39;1700049;82;21143;-79
2020/12/05 06:50:43;;;;;;;22.02;13.88;;;;;;;5.93;83.06;99436.76;1698102;84;21131;-79
2020/12/05 06:53:23;;;;;;;21.62;13.03;;;;;;;5.97;83.06;99437.97;1699384;82;21879;-79
2020/12/05 06:55:54;;;;;;;23.62;13.95;;;;;;;5.98;83.06;99435.81;1701424;83;21143;-77
2020/12/05 06:58:31;;;;;;;24.75;13.85;;;;;;;6.04;83.05;99441.28;1700484;84;21012;-77
2020/12/05 07:00:58;;;;;;;20.12;13.93;;;;;;;6.08;83.06;99435.66;1698175;82;21166;-77
2020/12/05 07:03:27;;;;;;;;;;;;;;;6.12;83.09;99437.30;1703711;83;21110;-77
2020/12/05 07:05:53;;;;;;;22.17;13.88;;;;;;;6.16;83.09;99442.80;1698000;83;20263;-77
2020/12/05 07:08:38;;;;;;;20.00;13.93;;;;;;;6.21;83.11;99444.85;1701301;82;21155;-77
2020/12/05 07:11:16;;;;;;;22.85;13.22;;;;;;;6.24;83.06;99445.61;1664349;83;21500;-77
2020/12/05 07:13:50;;;;;;;19.20;13.72;;;;;;;6.29;83.07;99446.39;1696496;82;21643;-77
2020/12/05 07:16:22;;;;;;;20.90;12.63;;;;;;;6.36;83.10;99456.11;1696855;83;20983;-77
2020/12/05 07:18:57;;;;;;;21.45;13.38;;;;;;;6.42;83.12;99461.58;1665002;84;21539;-77
2020/12/05 07:21:26;;;;;;;19.45;12.58;;;;;;;6.49;83.08;99464.02;1681273;84;22065;-77
2020/12/05 07:23:54;;;;;;;21.95;13.43;;;;;;;6.55;83.08;99466.91;1700228;82;21136;-77
2020/12/05 07:26:20;;;;;;;20.05;13.48;;;;;;;6.63;83.08;99477.45;1704262;83;21158;-77
2020/12/05 07:28:51;;;;;;;22.37;13.67;;;;;;;6.70;83.02;99480.76;1701039;82;21264;-77
2020/12/05 07:31:18;;;;;;;21.85;13.20;;;;;;;6.75;82.97;99475.09;1707335;82;21170;-77
2020/12/05 07:33:45;;;;;;;20.65;12.25;;;;;;;6.81;82.97;99483.09;1707624;82;21630;-77
2020/12/05 07:36:13;;;;;;;21.87;12.63;;;;;;;6.86;82.96;99492.41;1700406;82;21126;-77
2020/12/05 07:38:42;;;;;;;17.92;11.78;;;;;;;6.94;83.01;99498.25;1693434;82;21125;-77
2020/12/05 07:41:16;;;;;;;15.30;11.85;;;;;;;7.00;82.91;99510.14;1707488;82;21131;-77
2020/12/05 07:43:43;;;;;;;19.00;13.13;;;;;;;7.06;82.93;99511.31;1706689;83;21547;-77
2020/12/05 07:46:13;;;;;;;18.32;12.35;;;;;;;7.13;82.85;99512.89;1680659;84;22085;-77
2020/12/05 07:48:39;;;;;;;17.62;12.47;;;;;;;7.18;82.80;99517.50;1680316;83;21159;-77
2020/12/05 07:51:14;;;;;;;16.85;12.78;;;;;;;7.22;82.79;99528.57;1699063;82;21528;-77
2020/12/05 07:53:40;;;;;;;21.42;12.40;;;;;;;7.26;82.78;99543.06;1698969;82;21142;-77
2020/12/05 07:56:22;;;;;;;18.67;12.20;;;;;;;7.29;82.74;99553.25;1707902;82;21111;-77
2020/12/05 07:58:57;;;;;;;18.57;13.00;;;;;;;7.31;82.73;99539.92;1684314;83;21148;-77
2020/12/05 08:01:55;;;;;;;17.67;13.00;;;;;;;7.34;82.68;99556.58;1702764;83;21479;-77
2020/12/05 08:04:44;;;;;;;22.32;12.53;;;;;;;7.34;82.73;99550.15;1633914;86;21176;-77
2020/12/05 08:07:38;;;;;;;18.85;12.68;;;;;;;7.38;82.68;99554.80;1641113;84;21175;-77
2020/12/05 08:10:15;;;;;;;15.58;11.68;;;;;;;7.41;82.69;99553.45;1640035;86;21158;-78
2020/12/05 08:13:21;;;;;;;22.32;12.43;;;;;;;7.47;82.65;99561.05;1656470;85;21474;-78
2020/12/05 08:15:52;;;;;;;19.17;13.03;;;;;;;7.49;82.62;99566.56;1653250;85;21135;-78
2020/12/05 08:18:20;;;;;;;20.60;12.60;;;;;;;7.50;82.55;99566.13;1630811;85;21138;-76
2020/12/05 08:20:48;;;;;;;20.10;12.58;;;;;;;7.52;82.59;99584.51;1655741;85;21174;-76
2020/12/05 08:23:38;;;;;;;18.30;12.37;;;;;;;7.53;82.54;99589.22;1651578;85;21127;-76
2020/12/05 08:26:08;;;;;;;20.80;12.45;;;;;;;7.52;82.53;99587.52;1650510;86;21432;-76
2020/12/05 08:28:40;;;;;;;19.48;12.88;;;;;;;7.52;82.58;99581.94;1716335;82;21121;-76
2020/12/05 08:31:12;;;;;;;17.98;13.00;;;;;;;7.53;82.56;99588.78;1716949;82;21571;-76
2020/12/05 08:33:50;;;;;;;17.92;12.55;;;;;;;7.54;82.54;99595.61;1705461;82;21112;-76
2020/12/05 08:36:33;;;;;;;20.97;12.78;;;;;;;7.55;82.47;99592.60;1710651;83;21138;-76
2020/12/05 08:39:09;;;;;;;18.50;11.97;;;;;;;7.54;82.48;99608.91;1715834;82;22075;-76
2020/12/05 08:41:50;;;;;;;18.30;12.20;;;;;;;7.55;82.48;99601.61;1714537;83;21216;-76
2020/12/05 08:44:20;;;;;;;18.30;12.53;;;;;;;7.54;82.44;99607.19;1694335;82;21260;-77
2020/12/05 08:46:46;;;;;;;18.32;12.35;;;;;;;7.56;82.44;99608.45;1704184;82;21570;-77
2020/12/05 08:49:20;;;;;;;19.82;12.82;;;;;;;7.55;82.46;99603.74;1691352;83;21220;-77
2020/12/05 08:51:51;;;;;;;17.98;12.78;;;;;;;7.58;82.40;99605.41;1694157;82;21217;-76
2020/12/05 08:54:18;;;;;;;18.15;12.00;;;;;;;7.58;82.41;99601.55;1717208;83;21208;-77
2020/12/05 08:56:44;;;;;;;21.68;12.73;;;;;;;7.60;82.42;99611.36;1704554;82;21468;-77
2020/12/05 08:59:12;;;;;;;21.42;12.68;;;;;;;7.61;82.41;99622.91;1706465;82;21236;-77
2020/12/05 09:01:44;;;;;;;21.35;13.00;;;;;;;7.63;82.42;99608.73;1697186;83;21105;-77
2020/12/05 09:04:12;;;;;;;18.50;12.18;;;;;;;7.66;82.42;99617.68;1693013;82;21719;-77
2020/12/05 09:06:39;;;;;;;19.12;12.63;;;;;;;7.69;82.39;99614.20;1696428;83;21140;-77
2020/12/05 09:09:06;;;;;;;20.00;12.80;;;;;;;7.70;82.38;99617.18;1715811;82;21189;-77
2020/12/05 09:11:33;;;;;;;19.62;13.15;;;;;;;7.74;82.37;99614.95;1719141;83;21125;-77
2020/12/05 09:13:59;;;;;;;21.30;13.22;;;;;;;7.76;82.33;99626.06;1671340;83;21629;-77
2020/12/05 09:16:35;;;;;;;21.37;12.87;;;;;;;7.78;82.31;99616.58;1705360;82;21216;-77
2020/12/05 09:19:01;;;;;;;20.17;13.20;;;;;;;7.79;82.30;99617.84;1716029;82;21758;-77
2020/12/05 09:21:34;;;;;;;18.20;12.40;;;;;;;7.80;82.17;99622.55;1688661;83;21216;-77
2020/12/05 09:24:03;;;;;;;19.70;12.18;;;;;;;7.81;82.23;99626.78;1705490;82;21208;-76
2020/12/05 09:26:29;;;;;;;22.15;13.55;;;;;;;7.83;82.23;99617.30;1689414;83;21209;-76
2020/12/05 09:28:55;;;;;;;21.23;13.67;;;;;;;7.84;82.23;99606.13;1692624;83;22136;-76
2020/12/05 09:31:22;;;;;;;18.77;12.43;;;;;;;7.86;82.18;99607.80;1708107;82;21353;-76
2020/12/05 09:33:48;;;;;;;18.47;13.20;;;;;;;7.87;82.18;99608.20;1716278;83;21214;-76
2020/12/05 09:36:14;;;;;;;18.20;12.23;;;;;;;7.91;82.20;99607.70;1710976;83;21113;-76
2020/12/05 09:38:40;;;;;;;19.03;12.97;;;;;;;7.93;82.15;99610.64;1705440;82;21046;-78
2020/12/05 09:41:06;;;;;;;23.05;13.58;;;;;;;7.95;82.18;99602.89;1701944;83;21579;-78
2020/12/05 09:43:32;;;;;;;21.00;12.93;;;;;;;7.97;82.12;99617.42;1702339;82;21424;-79
2020/12/05 09:45:58;;;;;;;22.20;12.47;;;;;;;8.01;82.14;99623.80;1686383;83;21197;-79
2020/12/05 09:48:24;;;;;;;18.50;13.20;;;;;;;8.02;82.10;99617.33;1705547;83;20967;-79
2020/12/05 09:50:50;;;;;;;18.00;12.53;;;;;;;8.06;82.09;99624.11;1705757;83;21765;-79
2020/12/05 09:53:17;;;;;;;27.40;12.93;;;;;;;8.08;82.07;99622.78;1705382;82;21277;-78
2020/12/05 09:55:43;;;;;;;18.00;12.88;;;;;;;8.11;82.03;99617.12;1694792;83;21418;-78
2020/12/05 09:58:09;;;;;;;20.23;12.60;;;;;;;8.06;82.03;99607.81;1697974;83;21587;-78
2020/12/05 10:00:35;;;;;;;16.60;12.60;;;;;;;8.06;82.03;99607.81;1705031;82;22246;-78
2020/12/05 10:03:01;;;;;;;19.77;12.77;;;;;;;8.19;82.01;99623.40;1676747;83;21252;-78
2020/12/05 10:05:27;;;;;;;16.73;12.00;;;;;;;8.21;81.96;99618.63;1697121;82;22443;-78
2020/12/05 10:07:53;;;;;;;18.63;12.40;;;;;;;8.23;81.98;99613.00;1710704;83;21192;-78
2020/12/05 10:10:19;;;;;;;21.48;12.10;;;;;;;8.29;81.95;99615.88;1703095;82;21741;-78
2020/12/05 10:12:45;;;;;;;19.83;11.83;;;;;;;8.34;81.91;99618.34;1700118;83;21201;-78
2020/12/05 10:15:15;;;;;;;17.77;11.35;;;;;;;8.36;81.87;99623.02;1707786;82;21662;-78
2020/12/05 10:17:43;;;;;;;18.48;11.93;;;;;;;8.38;81.88;99634.98;1704744;82;21224;-79
2020/12/05 10:20:10;;;;;;;17.95;12.10;;;;;;;8.40;81.86;99630.65;1713959;82;21152;-79
2020/12/05 10:22:36;;;;;;;19.23;12.65;;;;;;;8.42;81.85;99634.47;1714759;82;21116;-79
2020/12/05 10:25:04;;;;;;;20.23;12.95;;;;;;;8.45;81.81;99631.83;1677878;83;21146;-79
2020/12/05 10:27:30;;;;;;;21.07;13.25;;;;;;;8.48;81.77;99633.89;1701894;82;21121;-79
2020/12/05 10:29:56;;;;;;;19.77;13.00;;;;;;;8.49;81.80;99634.30;1681872;83;22289;-79
2020/12/05 10:32:22;;;;;;;20.10;12.80;;;;;;;8.51;81.75;99634.27;1692445;82;21209;-79
2020/12/05 10:34:49;;;;;;;18.43;13.50;;;;;;;8.51;81.68;99642.84;1685020;84;21749;-79
2020/12/05 10:37:14;;;;;;;18.52;12.80;;;;;;;8.53;81.72;99657.83;1681730;82;21920;-79
2020/12/05 10:39:41;;;;;;;18.77;12.50;;;;;;;8.54;81.70;99664.67;1694810;83;21184;-79
2020/12/05 10:42:07;;;;;;;17.07;12.73;;;;;;;8.56;81.67;99677.52;1696650;83;22547;-79
2020/12/05 10:44:33;;;;;;;19.93;13.10;;;;;;;8.56;81.63;99677.52;1685825;84;21210;-79
2020/12/05 10:46:59;;;;;;;24.57;15.43;;;;;;;8.58;81.65;99671.45;1684814;82;21633;-79
2020/12/05 10:49:28;;;;;;;22.07;13.53;;;;;;;8.61;81.60;99676.53;1664031;84;21210;-79
2020/12/05 10:51:53;;;;;;;18.52;12.82;;;;;;;8.62;81.58;99673.52;1653390;84;21490;-79
2020/12/05 10:54:19;;;;;;;19.57;12.68;;;;;;;8.63;81.61;99670.05;1677082;84;22336;-79
2020/12/05 10:56:45;;;;;;;19.47;13.03;;;;;;;8.66;81.51;99683.31;1738107;81;20999;-78
2020/12/05 10:59:11;;;;;;;18.27;12.10;;;;;;;8.68;81.53;99684.12;1710518;81;20968;-78
2020/12/05 11:01:37;;;;;;;21.13;13.63;;;;;;;8.68;81.46;99680.27;1744319;81;21210;-78
2020/12/05 11:04:03;;;;;;;21.60;12.43;;;;;;;8.71;81.47;99684.91;1725885;80;21509;-78
2020/12/05 11:06:30;;;;;;;17.45;11.95;;;;;;;8.72;81.47;99687.04;1739678;81;21119;-78
2020/12/05 11:08:56;;;;;;;21.40;12.95;;;;;;;8.73;81.48;99694.73;1745908;81;21159;-78
2020/12/05 11:11:23;;;;;;;20.92;13.98;;;;;;;8.74;81.42;99696.43;1734736;80;21113;-78
2020/12/05 11:13:49;;;;;;;19.85;13.88;;;;;;;8.76;81.38;99703.69;1732478;80;21098;-78
2020/12/05 11:16:20;;;;;;;18.90;12.13;;;;;;;8.77;81.40;99718.71;1738902;81;21079;-78
2020/12/05 11:18:46;;;;;;;22.25;12.93;;;;;;;8.79;81.37;99714.37;1736048;81;21268;-78
2020/12/05 11:21:12;;;;;;;19.32;12.73;;;;;;;8.79;81.29;99719.52;1736334;80;21119;-78
2020/12/05 11:23:39;;;;;;;18.77;12.23;;;;;;;8.80;81.31;99727.22;1709665;82;21118;-78
2020/12/05 11:26:05;;;;;;;19.47;12.43;;;;;;;8.84;81.38;99726.67;1733012;81;21104;-78
2020/12/05 11:28:31;;;;;;;19.07;11.90;;;;;;;8.86;81.30;99738.64;1735955;80;21146;-78
2020/12/05 11:30:57;;;;;;;19.93;12.03;;;;;;;8.90;81.27;99754.89;1739751;80;21431;-78
2020/12/05 11:33:23;;;;;;;24.37;12.73;;;;;;;8.92;81.19;99759.58;1713969;82;21001;-78
2020/12/05 11:35:51;;;;;;;20.85;13.20;;;;;;;8.93;81.22;99746.65;1747811;80;22031;-78
2020/12/05 11:38:18;;;;;;;21.17;13.08;;;;;;;8.95;81.09;99750.04;1749184;80;21523;-78
2020/12/05 11:40:47;;;;;;;19.82;12.25;;;;;;;8.98;81.19;99754.28;1732443;80;21325;-78